createdAt,value
2018-05-21T00:02:03.173Z,41.60
2018-05-21T00:04:30.631Z,41.70
2018-05-21T00:06:58.112Z,41.70
2018-05-21T00:09:25.854Z,41.90
2018-05-21T00:11:53.316Z,42.00
2018-05-21T00:14:21.069Z,42.10
2018-05-21T00:16:48.916Z,42.10
2018-05-21T00:19:16.292Z,42.30
2018-05-21T00:21:43.945Z,42.30
2018-05-21T00:24:11.521Z,42.50
2018-05-21T00:26:39.285Z,42.50
2018-05-21T00:29:07.037Z,42.70
2018-05-21T00:31:34.483Z,42.80
2018-05-21T00:34:01.944Z,42.80
2018-05-21T00:36:29.593Z,42.80
2018-05-21T00:38:57.091Z,42.90
2018-05-21T00:41:24.637Z,43.00
2018-05-21T00:43:52.463Z,43.10
2018-05-21T00:46:19.853Z,43.20
2018-05-21T00:48:47.309Z,43.40
2018-05-21T00:51:14.941Z,43.60
2018-05-21T00:53:42.526Z,43.80
2018-05-21T00:56:10.293Z,44.00
2018-05-21T00:58:37.753Z,44.10
2018-05-21T01:01:05.504Z,44.20
2018-05-21T01:03:33.157Z,44.20
2018-05-21T01:06:00.608Z,44.20
2018-05-21T01:08:28.075Z,44.20
2018-05-21T01:10:55.645Z,44.40
2018-05-21T01:13:23.298Z,44.40
2018-05-21T01:15:50.869Z,44.60
2018-05-21T01:18:18.629Z,44.70
2018-05-21T01:20:46.272Z,44.80
2018-05-21T01:23:13.850Z,45.00
2018-05-21T01:25:41.612Z,45.10
2018-05-21T01:28:09.268Z,45.10
2018-05-21T01:30:36.748Z,45.20
2018-05-21T01:33:04.272Z,45.30
2018-05-21T01:35:31.729Z,45.40
2018-05-21T01:37:59.821Z,45.60
2018-05-21T01:40:27.473Z,45.70
2018-05-21T01:42:55.032Z,45.80
2018-05-21T01:45:22.803Z,45.90
2018-05-21T01:47:50.569Z,46.00
2018-05-21T01:50:18.026Z,46.10
2018-05-21T01:52:45.472Z,46.30
2018-05-21T01:55:13.157Z,46.40
2018-05-21T01:57:40.596Z,46.50
2018-05-21T02:00:08.070Z,46.50
2018-05-21T02:02:35.618Z,46.60
2018-05-21T02:05:03.178Z,46.70
2018-05-21T02:07:30.628Z,46.80
2018-05-21T02:09:58.171Z,46.90
2018-05-21T02:12:25.696Z,47.00
2018-05-21T02:14:53.200Z,47.20
2018-05-21T02:17:20.966Z,47.30
2018-05-21T02:19:48.416Z,47.40
2018-05-21T02:22:16.185Z,47.50
2018-05-21T02:24:43.648Z,47.50
2018-05-21T02:27:11.114Z,47.70
2018-05-21T02:29:38.565Z,47.80
2018-05-21T02:32:06.025Z,47.90
2018-05-21T02:34:33.478Z,48.00
2018-05-21T02:37:01.047Z,48.10
2018-05-21T02:39:29.283Z,48.00
2018-05-21T02:41:56.765Z,48.20
2018-05-21T02:44:24.231Z,48.30
2018-05-21T02:46:51.794Z,48.50
2018-05-21T02:49:19.448Z,48.50
2018-05-21T02:51:47.089Z,48.30
2018-05-21T02:54:14.576Z,48.70
2018-05-21T02:56:42.037Z,48.80
2018-05-21T02:59:09.581Z,48.90
2018-05-21T03:01:37.049Z,49.00
2018-05-21T03:04:04.608Z,49.20
2018-05-21T03:06:32.865Z,49.10
2018-05-21T03:09:00.332Z,49.30
2018-05-21T03:11:28.084Z,49.40
2018-05-21T03:13:55.876Z,49.50
2018-05-21T03:16:23.612Z,49.70
2018-05-21T03:18:51.260Z,49.80
2018-05-21T03:21:18.749Z,50.00
2018-05-21T03:23:46.204Z,50.10
2018-05-21T03:26:13.670Z,50.30
2018-05-21T03:28:41.137Z,50.40
2018-05-21T03:31:08.581Z,50.50
2018-05-21T03:33:36.041Z,50.70
2018-05-21T03:36:03.581Z,50.90
2018-05-21T03:38:31.345Z,50.90
2018-05-21T03:40:58.982Z,51.00
2018-05-21T03:43:26.485Z,51.10
2018-05-21T03:45:54.018Z,51.30
2018-05-21T03:48:21.492Z,51.40
2018-05-21T03:50:48.933Z,51.50
2018-05-21T03:53:16.585Z,51.60
2018-05-21T03:55:44.081Z,51.70
2018-05-21T03:58:23.281Z,51.80
2018-05-21T04:01:02.573Z,51.90
2018-05-21T04:03:51.060Z,52.10
2018-05-21T04:06:18.512Z,52.70
2018-05-21T04:08:45.976Z,52.20
2018-05-21T04:11:13.736Z,52.40
2018-05-21T04:13:41.397Z,52.50
2018-05-21T04:16:08.873Z,52.60
2018-05-21T04:18:36.440Z,52.70
2018-05-21T04:21:03.896Z,52.90
2018-05-21T04:23:31.644Z,52.90
2018-05-21T04:25:59.410Z,53.00
2018-05-21T04:28:27.040Z,53.10
2018-05-21T04:30:54.533Z,53.20
2018-05-21T04:33:22.085Z,53.50
2018-05-21T04:35:49.840Z,53.50
2018-05-21T04:38:17.296Z,53.50
2018-05-21T04:40:45.057Z,53.60
2018-05-21T04:43:12.842Z,53.70
2018-05-21T04:45:40.478Z,53.80
2018-05-21T04:48:08.049Z,53.80
2018-05-21T04:50:35.510Z,54.00
2018-05-21T04:53:02.962Z,54.10
2018-05-21T04:55:30.725Z,54.20
2018-05-21T04:57:58.284Z,54.30
2018-05-21T05:00:25.951Z,54.20
2018-05-21T05:02:53.421Z,54.30
2018-05-21T05:05:21.166Z,54.40
2018-05-21T05:07:48.936Z,54.60
2018-05-21T05:10:16.500Z,54.60
2018-05-21T05:12:44.033Z,54.60
2018-05-21T05:15:11.609Z,54.50
2018-05-21T05:17:39.245Z,54.50
2018-05-21T05:20:06.833Z,54.60
2018-05-21T05:22:34.285Z,54.70
2018-05-21T05:25:01.922Z,54.70
2018-05-21T05:27:29.505Z,54.70
2018-05-21T05:29:57.143Z,54.70
2018-05-21T05:32:24.628Z,54.80
2018-05-21T05:34:52.081Z,54.80
2018-05-21T05:37:19.544Z,54.90
2018-05-21T05:39:47.097Z,54.90
2018-05-21T05:42:14.751Z,55.00
2018-05-21T05:44:42.201Z,55.00
2018-05-21T05:47:09.665Z,55.00
2018-05-21T05:49:37.232Z,55.00
2018-05-21T05:52:04.701Z,55.00
2018-05-21T05:54:32.155Z,55.00
2018-05-21T05:56:59.618Z,54.90
2018-05-21T05:59:27.068Z,54.90
2018-05-21T06:01:54.704Z,54.70
2018-05-21T06:04:22.273Z,54.70
2018-05-21T06:06:49.741Z,54.70
2018-05-21T06:09:17.203Z,54.70
2018-05-21T06:11:44.676Z,54.70
2018-05-21T06:14:12.432Z,54.50
2018-05-21T06:16:39.886Z,54.50
2018-05-21T06:19:07.369Z,54.50
2018-05-21T06:21:34.827Z,54.50
2018-05-21T06:24:02.296Z,54.30
2018-05-21T06:26:29.887Z,54.20
2018-05-21T06:28:57.353Z,54.20
2018-05-21T06:31:24.927Z,54.20
2018-05-21T06:33:52.637Z,54.10
2018-05-21T06:36:20.058Z,54.20
2018-05-21T06:38:47.523Z,54.20
2018-05-21T06:41:15.744Z,53.90
2018-05-21T06:43:43.212Z,53.90
2018-05-21T06:46:10.685Z,53.80
2018-05-21T06:48:38.162Z,53.80
2018-05-21T06:51:06.544Z,53.80
2018-05-21T06:53:35.547Z,53.70
2018-05-21T06:56:03.005Z,53.60
2018-05-21T06:58:31.237Z,53.50
2018-05-21T07:00:58.680Z,53.50
2018-05-21T07:03:26.137Z,53.30
2018-05-21T07:05:53.605Z,53.10
2018-05-21T07:08:21.057Z,52.80
2018-05-21T07:10:48.519Z,52.70
2018-05-21T07:13:15.980Z,52.40
2018-05-21T07:15:43.450Z,52.50
2018-05-21T07:18:10.950Z,52.40
2018-05-21T07:20:38.372Z,52.10
2018-05-21T07:23:06.626Z,51.60
2018-05-21T07:25:34.192Z,51.60
2018-05-21T07:28:01.958Z,51.30
2018-05-21T07:30:29.610Z,51.20
2018-05-21T07:32:57.196Z,51.10
2018-05-21T07:35:25.766Z,50.90
2018-05-21T07:37:53.226Z,50.80
2018-05-21T07:40:20.685Z,50.80
2018-05-21T07:42:48.137Z,50.60
2018-05-21T07:45:15.714Z,50.40
2018-05-21T07:47:43.348Z,50.40
2018-05-21T07:50:10.909Z,50.40
2018-05-21T07:52:38.676Z,50.60
2018-05-21T07:55:06.257Z,50.40
2018-05-21T07:57:34.477Z,50.40
2018-05-21T08:00:01.932Z,50.40
2018-05-21T08:02:29.390Z,50.10
2018-05-21T08:04:56.845Z,50.10
2018-05-21T08:07:24.337Z,49.90
2018-05-21T08:09:51.998Z,49.80
2018-05-21T08:12:19.542Z,49.90
2018-05-21T08:14:47.284Z,49.80
2018-05-21T08:17:14.779Z,49.60
2018-05-21T08:19:42.557Z,49.50
2018-05-21T08:22:10.364Z,49.40
2018-05-21T08:24:37.746Z,49.20
2018-05-21T08:27:05.225Z,49.00
2018-05-21T08:29:32.845Z,48.90
2018-05-21T08:32:00.348Z,48.90
2018-05-21T08:34:27.812Z,48.70
2018-05-21T08:36:55.301Z,48.30
2018-05-21T08:39:22.761Z,48.00
2018-05-21T08:41:50.212Z,47.70
2018-05-21T08:44:17.708Z,48.00
2018-05-21T08:46:45.484Z,47.30
2018-05-21T08:49:12.942Z,47.10
2018-05-21T08:51:40.569Z,47.00
2018-05-21T08:54:08.065Z,46.90
2018-05-21T08:56:35.571Z,46.80
2018-05-21T08:59:04.002Z,46.50
2018-05-21T09:01:31.449Z,46.50
2018-05-21T09:03:59.096Z,46.40
2018-05-21T09:06:26.671Z,46.10
2018-05-21T09:08:54.425Z,46.00
2018-05-21T09:11:21.872Z,45.90
2018-05-21T09:13:49.333Z,45.90
2018-05-21T09:16:17.099Z,45.70
2018-05-21T09:18:44.501Z,45.60
2018-05-21T09:21:12.023Z,45.70
2018-05-21T09:23:39.444Z,45.80
2018-05-21T09:26:06.974Z,45.90
2018-05-21T09:28:34.372Z,45.80
2018-05-21T09:31:02.034Z,45.50
2018-05-21T09:33:29.605Z,45.50
2018-05-21T09:35:57.074Z,45.50
2018-05-21T09:38:24.520Z,45.50
2018-05-21T09:40:52.218Z,45.50
2018-05-21T09:43:19.641Z,45.30
2018-05-21T09:45:47.113Z,45.10
2018-05-21T09:48:14.562Z,44.90
2018-05-21T09:50:42.312Z,44.90
2018-05-21T09:53:09.885Z,45.00
2018-05-21T09:55:37.345Z,45.00
2018-05-21T09:58:06.333Z,45.20
2018-05-21T10:00:33.824Z,45.30
2018-05-21T10:03:01.467Z,45.20
2018-05-21T10:05:29.009Z,44.90
2018-05-21T10:07:56.476Z,44.90
2018-05-21T10:10:25.440Z,44.70
2018-05-21T10:12:52.914Z,44.60
2018-05-21T10:15:20.380Z,44.50
2018-05-21T10:17:48.011Z,44.40
2018-05-21T10:20:15.592Z,44.20
2018-05-21T10:22:43.344Z,43.90
2018-05-21T10:25:11.105Z,43.90
2018-05-21T10:27:38.576Z,43.90
2018-05-21T10:30:06.033Z,43.90
2018-05-21T10:32:33.685Z,43.90
2018-05-21T10:35:01.252Z,43.90
2018-05-21T10:37:28.725Z,43.70
2018-05-21T10:39:56.349Z,43.60
2018-05-21T10:42:23.933Z,43.50
2018-05-21T10:44:51.710Z,43.40
2018-05-21T10:47:19.952Z,43.00
2018-05-21T10:49:47.533Z,43.00
2018-05-21T10:52:16.821Z,42.80
2018-05-21T10:54:44.282Z,42.80
2018-05-21T10:57:11.766Z,42.80
2018-05-21T10:59:39.225Z,42.90
2018-05-21T11:02:06.873Z,42.70
2018-05-21T11:04:34.453Z,42.60
2018-05-21T11:07:01.889Z,42.70
2018-05-21T11:09:29.637Z,42.90
2018-05-21T11:11:57.097Z,42.80
2018-05-21T11:14:26.169Z,42.30
2018-05-21T11:16:53.634Z,42.20
2018-05-21T11:19:21.308Z,42.10
2018-05-21T11:21:48.956Z,42.00
2018-05-21T11:24:16.436Z,41.90
2018-05-21T11:26:43.993Z,41.90
2018-05-21T11:29:12.280Z,41.70
2018-05-21T11:31:40.743Z,41.60
2018-05-21T11:34:08.668Z,41.40
2018-05-21T11:36:36.313Z,41.20
2018-05-21T11:39:03.771Z,41.10
2018-05-21T11:41:31.493Z,41.10
2018-05-21T11:44:00.472Z,40.50
2018-05-21T11:46:27.967Z,40.50
2018-05-21T11:48:55.595Z,40.30
2018-05-21T11:51:23.041Z,40.30
2018-05-21T11:53:50.524Z,40.30
2018-05-21T11:56:17.973Z,40.20
2018-05-21T11:58:46.444Z,39.60
2018-05-21T12:01:14.213Z,39.60
2018-05-21T12:03:41.981Z,39.30
2018-05-21T12:06:10.266Z,39.00
2018-05-21T12:08:37.812Z,39.00
2018-05-21T12:11:05.581Z,39.10
2018-05-21T12:13:33.374Z,39.10
2018-05-21T12:16:00.802Z,38.90
2018-05-21T12:18:28.417Z,38.90
2018-05-21T12:20:55.876Z,38.70
2018-05-21T12:23:23.409Z,38.60
2018-05-21T12:25:50.930Z,38.60
2018-05-21T12:28:18.690Z,38.60
2018-05-21T12:30:46.461Z,38.50
2018-05-21T12:33:15.451Z,38.70
2018-05-21T12:35:42.918Z,38.50
2018-05-21T12:38:11.311Z,38.40
2018-05-21T12:40:40.587Z,38.30
2018-05-21T12:43:10.464Z,38.20
2018-05-21T12:45:37.929Z,38.20
2018-05-21T12:48:05.418Z,38.30
2018-05-21T12:50:32.881Z,38.40
2018-05-21T12:53:01.121Z,38.50
2018-05-21T12:55:28.703Z,38.40
2018-05-21T12:57:56.466Z,38.40
2018-05-21T13:00:24.125Z,38.50
2018-05-21T13:02:51.581Z,38.70
2018-05-21T13:05:19.146Z,38.50
2018-05-21T13:07:46.532Z,38.60
2018-05-21T13:10:13.993Z,38.60
2018-05-21T13:12:41.445Z,38.30
2018-05-21T13:15:09.901Z,38.30
2018-05-21T13:17:37.367Z,38.30
2018-05-21T13:20:04.833Z,38.20
2018-05-21T13:22:32.286Z,38.10
2018-05-21T13:24:59.962Z,38.00
2018-05-21T13:27:27.417Z,38.10
2018-05-21T13:29:54.864Z,38.20
2018-05-21T13:32:22.400Z,38.30
2018-05-21T13:34:50.048Z,38.20
2018-05-21T13:37:17.622Z,38.00
2018-05-21T13:39:45.416Z,38.00
2018-05-21T13:42:12.881Z,38.10
2018-05-21T13:44:40.621Z,38.00
2018-05-21T13:47:08.183Z,37.90
2018-05-21T13:49:35.729Z,37.90
2018-05-21T13:52:03.285Z,38.20
2018-05-21T13:54:32.278Z,38.10
2018-05-21T13:57:01.271Z,38.10
2018-05-21T13:59:28.728Z,38.10
2018-05-21T14:01:57.696Z,38.00
2018-05-21T14:04:25.491Z,37.90
2018-05-21T14:06:54.467Z,37.80
2018-05-21T14:09:22.016Z,37.70
2018-05-21T14:11:49.710Z,37.70
2018-05-21T14:14:18.147Z,37.80
2018-05-21T14:16:45.836Z,37.80
2018-05-21T14:19:13.305Z,38.00
2018-05-21T14:21:40.854Z,38.20
2018-05-21T14:24:08.421Z,38.20
2018-05-21T14:26:35.963Z,38.20
2018-05-21T14:29:03.433Z,38.10
2018-05-21T14:31:31.811Z,37.30
2018-05-21T14:34:00.794Z,37.00
2018-05-21T14:36:28.442Z,37.00
2018-05-21T14:38:55.941Z,36.90
2018-05-21T14:41:23.397Z,36.80
2018-05-21T14:43:51.745Z,36.80
2018-05-21T14:46:19.222Z,36.80
2018-05-21T14:48:46.770Z,36.80
2018-05-21T14:51:15.936Z,37.40
2018-05-21T14:53:43.436Z,37.50
2018-05-21T14:56:10.892Z,37.20
2018-05-21T14:58:38.357Z,37.10
2018-05-21T15:01:05.805Z,37.40
2018-05-21T15:03:33.269Z,37.00
2018-05-21T15:06:00.827Z,35.90
2018-05-21T15:08:28.505Z,35.70
2018-05-21T15:10:55.961Z,35.90
2018-05-21T15:13:23.424Z,36.00
2018-05-21T15:15:50.881Z,36.10
2018-05-21T15:18:18.336Z,35.90
2018-05-21T15:20:46.513Z,35.80
2018-05-21T15:23:14.238Z,36.00
2018-05-21T15:25:41.878Z,36.30
2018-05-21T15:28:09.361Z,36.50
2018-05-21T15:30:36.800Z,36.60
2018-05-21T15:33:04.361Z,36.80
2018-05-21T15:35:32.017Z,37.00
2018-05-21T15:37:59.589Z,37.00
2018-05-21T15:40:27.046Z,36.90
2018-05-21T15:42:56.013Z,37.10
2018-05-21T15:45:23.492Z,37.00
2018-05-21T15:47:50.944Z,37.30
2018-05-21T15:50:18.427Z,38.00
2018-05-21T15:52:46.753Z,37.30
2018-05-21T15:55:14.241Z,37.00
2018-05-21T15:57:41.789Z,36.90
2018-05-21T16:00:10.046Z,36.90
2018-05-21T16:02:37.536Z,36.90
2018-05-21T16:05:05.296Z,36.80
2018-05-21T16:07:32.758Z,36.70
2018-05-21T16:10:01.725Z,36.60
2018-05-21T16:12:29.398Z,36.60
2018-05-21T16:14:56.900Z,36.60
2018-05-21T16:17:24.431Z,36.50
2018-05-21T16:19:53.413Z,36.40
2018-05-21T16:22:20.882Z,36.40
2018-05-21T16:24:49.839Z,36.30
2018-05-21T16:27:17.302Z,36.30
2018-05-21T16:29:44.758Z,36.00
2018-05-21T16:32:12.250Z,36.00
2018-05-21T16:34:40.616Z,36.00
2018-05-21T16:37:08.382Z,36.10
2018-05-21T16:39:36.144Z,36.20
2018-05-21T16:42:03.914Z,36.00
2018-05-21T16:44:32.910Z,36.00
2018-05-21T16:47:02.209Z,35.90
2018-05-21T16:49:29.661Z,35.90
2018-05-21T16:51:58.760Z,35.90
2018-05-21T16:54:26.216Z,36.50
2018-05-21T16:56:54.600Z,35.90
2018-05-21T16:59:22.052Z,36.00
2018-05-21T17:01:49.519Z,36.00
2018-05-21T17:04:16.969Z,36.10
2018-05-21T17:06:44.504Z,36.70
2018-05-21T17:09:12.094Z,36.60
2018-05-21T17:11:39.548Z,37.20
2018-05-21T17:14:07.192Z,37.60
2018-05-21T17:16:34.648Z,38.20
2018-05-21T17:19:02.252Z,38.80
2018-05-21T17:21:30.041Z,39.40
2018-05-21T17:23:57.731Z,39.20
2018-05-21T17:26:25.389Z,39.80
2018-05-21T17:28:52.857Z,39.10
2018-05-21T17:31:20.340Z,39.20
2018-05-21T17:33:47.881Z,39.20
2018-05-21T17:36:16.837Z,39.40
2018-05-21T17:38:44.313Z,39.40
2018-05-21T17:41:11.981Z,39.40
2018-05-21T17:43:39.545Z,39.20
2018-05-21T17:46:07.205Z,39.60
2018-05-21T17:48:34.682Z,40.10
2018-05-21T17:51:02.129Z,39.80
2018-05-21T17:53:29.600Z,39.60
2018-05-21T17:55:57.057Z,39.30
2018-05-21T17:58:24.513Z,39.30
2018-05-21T18:00:51.988Z,39.30
2018-05-21T18:03:19.555Z,39.80
2018-05-21T18:05:46.920Z,39.80
2018-05-21T18:08:14.390Z,39.80
2018-05-21T18:10:41.855Z,39.90
2018-05-21T18:13:09.640Z,40.10
2018-05-21T18:15:37.293Z,40.10
2018-05-21T18:18:04.749Z,39.90
2018-05-21T18:20:32.241Z,39.80
2018-05-21T18:22:59.697Z,39.90
2018-05-21T18:25:27.241Z,40.40
2018-05-21T18:27:54.695Z,40.70
2018-05-21T18:30:22.167Z,41.00
2018-05-21T18:32:49.630Z,41.00
2018-05-21T18:35:17.089Z,41.10
2018-05-21T18:37:44.549Z,41.20
2018-05-21T18:40:12.020Z,41.30
2018-05-21T18:42:39.572Z,41.30
2018-05-21T18:45:06.933Z,41.40
2018-05-21T18:47:34.385Z,41.30
2018-05-21T18:50:01.841Z,41.40
2018-05-21T18:52:29.305Z,41.70
2018-05-21T18:54:56.753Z,42.10
2018-05-21T18:57:24.216Z,42.10
2018-05-21T18:59:51.730Z,42.00
2018-05-21T19:02:19.197Z,42.00
2018-05-21T19:04:46.650Z,42.10
2018-05-21T19:07:14.117Z,42.10
2018-05-21T19:09:41.577Z,42.00
2018-05-21T19:12:09.029Z,41.70
2018-05-21T19:14:36.479Z,40.30
2018-05-21T19:17:03.940Z,40.30
2018-05-21T19:19:31.400Z,40.50
2018-05-21T19:21:58.960Z,40.60
2018-05-21T19:24:27.437Z,40.40
2018-05-21T19:26:54.907Z,40.40
2018-05-21T19:29:22.362Z,40.50
2018-05-21T19:31:49.989Z,40.50
2018-05-21T19:34:17.565Z,40.40
2018-05-21T19:36:45.044Z,40.40
2018-05-21T19:39:12.505Z,40.40
2018-05-21T19:41:40.146Z,40.40
2018-05-21T19:44:07.605Z,40.50
2018-05-21T19:46:35.056Z,40.70
2018-05-21T19:49:02.520Z,40.90
2018-05-21T19:51:30.069Z,41.00
2018-05-21T19:53:57.537Z,41.10
2018-05-21T19:56:24.979Z,41.30
2018-05-21T19:58:52.445Z,41.40
2018-05-21T20:01:19.901Z,41.70
2018-05-21T20:03:47.364Z,41.90
2018-05-21T20:06:14.823Z,42.00
2018-05-21T20:08:43.081Z,42.20
2018-05-21T20:11:10.653Z,42.20
2018-05-21T20:13:39.054Z,42.50
2018-05-21T20:16:06.485Z,42.60
2018-05-21T20:18:34.240Z,42.80
2018-05-21T20:21:01.713Z,43.10
2018-05-21T20:23:30.896Z,43.50
2018-05-21T20:25:58.352Z,43.60
2018-05-21T20:28:25.912Z,43.80
2018-05-21T20:30:53.480Z,43.90
2018-05-21T20:33:21.147Z,44.10
2018-05-21T20:35:48.784Z,44.30
2018-05-21T20:38:16.245Z,44.50
2018-05-21T20:40:43.987Z,44.70
2018-05-21T20:43:11.445Z,44.90
2018-05-21T20:45:38.928Z,45.10
2018-05-21T20:48:06.377Z,45.20
2018-05-21T20:50:33.849Z,45.40
2018-05-21T20:53:01.313Z,46.20
2018-05-21T20:55:28.782Z,45.70
2018-05-21T20:57:56.242Z,45.80
2018-05-21T21:00:23.701Z,46.00
2018-05-21T21:02:51.166Z,46.30
2018-05-21T21:05:18.646Z,46.60
2018-05-21T21:07:46.105Z,46.80
2018-05-21T21:10:13.575Z,47.00
2018-05-21T21:12:41.040Z,47.10
2018-05-21T21:15:08.496Z,47.10
2018-05-21T21:17:35.986Z,47.30
2018-05-21T21:20:03.453Z,47.50
2018-05-21T21:22:31.709Z,47.80
2018-05-21T21:24:59.268Z,47.70
2018-05-21T21:27:26.921Z,47.80
2018-05-21T21:29:54.498Z,48.00
2018-05-21T21:32:23.548Z,48.80
2018-05-21T21:34:51.249Z,48.20
2018-05-21T21:37:18.897Z,48.30
2018-05-21T21:39:46.372Z,48.50
2018-05-21T21:42:13.928Z,48.50
2018-05-21T21:44:41.495Z,48.70
2018-05-21T21:47:08.979Z,48.80
2018-05-21T21:49:36.432Z,49.20
2018-05-21T21:52:04.057Z,49.60
2018-05-21T21:54:31.820Z,49.80
2018-05-21T21:56:59.301Z,50.10
2018-05-21T21:59:26.755Z,50.30
2018-05-21T22:01:54.421Z,50.50
2018-05-21T22:04:21.877Z,50.60
2018-05-21T22:06:49.367Z,50.50
2018-05-21T22:09:16.811Z,50.50
2018-05-21T22:11:44.272Z,51.20
2018-05-21T22:14:11.741Z,50.80
2018-05-21T22:16:39.194Z,50.90
2018-05-21T22:19:06.705Z,51.00
2018-05-21T22:21:34.337Z,51.10
2018-05-21T22:24:01.805Z,51.70
2018-05-21T22:26:29.382Z,51.20
2018-05-21T22:28:57.020Z,51.20
2018-05-21T22:31:24.592Z,51.40
2018-05-21T22:33:52.245Z,51.50
2018-05-21T22:36:19.728Z,51.70
2018-05-21T22:38:47.189Z,52.20
2018-05-21T22:41:14.742Z,52.30
2018-05-21T22:43:42.375Z,52.30
2018-05-21T22:46:09.940Z,52.30
2018-05-21T22:48:37.684Z,52.20
2018-05-21T22:51:05.145Z,52.40
2018-05-21T22:53:32.626Z,52.70
2018-05-21T22:56:00.260Z,53.10
2018-05-21T22:58:27.766Z,53.40
2018-05-21T23:00:55.332Z,53.60
2018-05-21T23:03:23.010Z,53.70
2018-05-21T23:05:50.526Z,53.80
2018-05-21T23:08:18.297Z,53.80
2018-05-21T23:10:46.059Z,53.70
2018-05-21T23:13:13.816Z,53.60
2018-05-21T23:15:41.465Z,53.50
2018-05-21T23:18:08.924Z,53.20
2018-05-21T23:20:36.486Z,53.30
2018-05-21T23:23:03.948Z,53.30
2018-05-21T23:25:31.606Z,53.30
2018-05-21T23:27:59.056Z,53.50
2018-05-21T23:30:26.629Z,53.60
2018-05-21T23:32:54.272Z,53.70
2018-05-21T23:35:21.732Z,53.70
2018-05-21T23:37:49.189Z,53.80
2018-05-21T23:40:16.704Z,53.80
2018-05-21T23:42:44.165Z,54.10
2018-05-21T23:45:11.640Z,54.50
2018-05-21T23:47:39.129Z,54.80
2018-05-21T23:50:06.589Z,54.90
2018-05-21T23:52:34.044Z,55.00
2018-05-21T23:55:01.703Z,55.00
2018-05-21T23:57:29.153Z,55.00
2018-05-21T23:59:56.720Z,54.90
